createdAt,value
2022-10-18T00:02:14.062Z,99831.81
2022-10-18T00:04:41.128Z,99827.50
2022-10-18T00:07:07.927Z,99828.34
2022-10-18T00:09:35.642Z,99826.75
2022-10-18T00:12:02.538Z,99827.72
2022-10-18T00:14:29.646Z,99825.03
2022-10-18T00:16:56.434Z,99825.13
2022-10-18T00:19:25.974Z,99829.72
2022-10-18T00:21:55.362Z,99821.69
2022-10-18T00:24:22.382Z,99829.84
2022-10-18T00:26:49.155Z,99823.56
2022-10-18T00:29:16.243Z,99823.81
2022-10-18T00:31:43.186Z,99820.34
2022-10-18T00:34:13.234Z,99824.91
2022-10-18T00:36:40.045Z,99824.16
2022-10-18T00:39:07.507Z,99817.03
2022-10-18T00:41:35.282Z,99814.44
2022-10-18T00:44:03.579Z,99820.72
2022-10-18T00:46:32.110Z,99817.25
2022-10-18T00:49:00.652Z,99822.69
2022-10-18T00:51:31.125Z,99811.34
2022-10-18T00:53:58.127Z,99822.09
2022-10-18T00:56:25.191Z,99819.50
2022-10-18T00:58:52.251Z,99813.28
2022-10-18T01:01:19.047Z,99816.91
2022-10-18T01:03:46.188Z,99815.28
2022-10-18T01:06:13.142Z,99817.13
2022-10-18T01:08:48.967Z,99811.94
2022-10-18T01:11:39.026Z,99812.94
2022-10-18T01:14:27.314Z,99809.34
2022-10-18T01:17:00.665Z,99805.06
2022-10-18T01:19:49.456Z,99805.06
2022-10-18T01:22:36.813Z,99807.75
2022-10-18T01:25:07.007Z,99807.13
2022-10-18T01:27:53.556Z,99806.16
2022-10-18T01:30:41.813Z,99804.41
2022-10-18T01:33:46.284Z,99798.13
2022-10-18T01:36:26.287Z,99795.41
2022-10-18T01:38:54.632Z,99793.81
2022-10-18T01:41:22.729Z,99790.22
2022-10-18T01:43:51.127Z,99790.22
2022-10-18T01:46:19.754Z,99794.06
2022-10-18T01:48:46.519Z,99791.34
2022-10-18T01:51:13.483Z,99795.03
2022-10-18T01:53:40.283Z,99796.91
2022-10-18T01:56:18.484Z,99792.56
2022-10-18T01:59:22.152Z,99794.41
2022-10-18T02:02:02.552Z,99780.09
2022-10-18T02:04:49.016Z,99780.22
2022-10-18T02:07:55.309Z,99781.19
2022-10-18T02:10:41.720Z,99777.88
2022-10-18T02:13:10.488Z,99779.84
2022-10-18T02:15:41.475Z,99777.13
2022-10-18T02:18:11.511Z,99779.00
2022-10-18T02:20:38.600Z,99770.06
2022-10-18T02:23:09.264Z,99775.47
2022-10-18T02:25:36.363Z,99765.75
2022-10-18T02:28:03.907Z,99767.72
2022-10-18T02:30:37.427Z,99769.56
2022-10-18T02:33:09.027Z,99757.84
2022-10-18T02:35:37.726Z,99756.09
2022-10-18T02:38:04.730Z,99757.22
2022-10-18T02:40:31.533Z,99759.09
2022-10-18T02:42:58.756Z,99757.47
2022-10-18T02:45:25.919Z,99754.03
2022-10-18T02:47:53.029Z,99752.28
2022-10-18T02:50:19.798Z,99741.53
2022-10-18T02:52:46.834Z,99746.13
2022-10-18T02:55:13.623Z,99738.09
2022-10-18T02:57:40.686Z,99739.97
2022-10-18T03:00:08.182Z,99742.78
2022-10-18T03:02:35.187Z,99734.75
2022-10-18T03:05:02.101Z,99733.25
2022-10-18T03:07:29.201Z,99736.75
2022-10-18T03:09:56.105Z,99735.75
2022-10-18T03:12:23.101Z,99732.16
2022-10-18T03:14:49.867Z,99731.44
2022-10-18T03:17:16.913Z,99731.56
2022-10-18T03:19:43.733Z,99731.56
2022-10-18T03:22:10.707Z,99725.41
2022-10-18T03:24:37.433Z,99740.78
2022-10-18T03:27:04.549Z,99737.97
2022-10-18T03:29:31.312Z,99741.69
2022-10-18T03:31:58.341Z,99745.47
2022-10-18T03:34:25.118Z,99748.06
2022-10-18T03:36:52.095Z,99754.34
2022-10-18T03:39:18.899Z,99741.91
2022-10-18T03:41:45.953Z,99735.47
2022-10-18T03:44:12.723Z,99725.63
2022-10-18T03:46:39.703Z,99717.72
2022-10-18T03:49:06.470Z,99720.22
2022-10-18T03:51:33.477Z,99734.88
2022-10-18T03:54:00.250Z,99732.28
2022-10-18T03:56:27.313Z,99743.88
2022-10-18T03:58:54.083Z,99747.56
2022-10-18T04:01:21.202Z,99748.56
2022-10-18T04:03:48.030Z,99749.94
2022-10-18T04:06:15.048Z,99748.31
2022-10-18T04:08:41.842Z,99745.38
2022-10-18T04:11:09.861Z,99750.06
2022-10-18T04:13:36.852Z,99752.78
2022-10-18T04:16:03.912Z,99757.19
2022-10-18T04:18:30.694Z,99764.34
2022-10-18T04:20:57.656Z,99773.47
2022-10-18T04:23:24.445Z,99770.75
2022-10-18T04:25:51.656Z,99767.94
2022-10-18T04:28:18.771Z,99773.59
2022-10-18T04:30:50.513Z,99770.03
2022-10-18T04:33:17.972Z,99770.88
2022-10-18T04:35:45.192Z,99784.31
2022-10-18T04:38:11.970Z,99774.47
2022-10-18T04:40:38.969Z,99775.44
2022-10-18T04:43:05.788Z,99766.56
2022-10-18T04:45:32.804Z,99763.25
2022-10-18T04:47:59.528Z,99768.16
2022-10-18T04:50:26.681Z,99765.72
2022-10-18T04:52:53.781Z,99768.31
2022-10-18T04:55:20.793Z,99765.59
2022-10-18T04:57:47.563Z,99766.81
2022-10-18T05:00:14.976Z,99762.63
2022-10-18T05:02:41.752Z,99764.56
2022-10-18T05:05:11.654Z,99766.19
2022-10-18T05:07:40.772Z,99769.63
2022-10-18T05:10:09.008Z,99770.50
2022-10-18T05:12:35.880Z,99768.44
2022-10-18T05:15:03.165Z,99768.91
2022-10-18T05:17:29.944Z,99773.34
2022-10-18T05:19:56.971Z,99764.34
2022-10-18T05:22:23.743Z,99769.88
2022-10-18T05:24:50.846Z,99765.22
2022-10-18T05:27:17.619Z,99768.78
2022-10-18T05:29:44.788Z,99769.88
2022-10-18T05:32:11.588Z,99768.03
2022-10-18T05:34:38.596Z,99775.31
2022-10-18T05:37:05.697Z,99768.91
2022-10-18T05:39:32.713Z,99768.91
2022-10-18T05:41:59.961Z,99769.03
2022-10-18T05:44:27.106Z,99775.81
2022-10-18T05:46:53.884Z,99765.91
2022-10-18T05:49:20.985Z,99758.88
2022-10-18T05:51:47.845Z,99765.53
2022-10-18T05:54:14.980Z,99764.69
2022-10-18T05:56:41.794Z,99761.97
2022-10-18T05:59:12.202Z,99766.50
2022-10-18T06:01:39.836Z,99771.06
2022-10-18T06:04:06.852Z,99770.09
2022-10-18T06:06:33.735Z,99770.84
2022-10-18T06:09:00.735Z,99771.69
2022-10-18T06:11:27.542Z,99781.69
2022-10-18T06:13:54.616Z,99784.91
2022-10-18T06:16:22.635Z,99785.31
2022-10-18T06:18:56.684Z,99775.91
2022-10-18T06:21:24.031Z,99779.53
2022-10-18T06:23:58.047Z,99778.91
2022-10-18T06:26:25.309Z,99775.81
2022-10-18T06:28:52.636Z,99772.84
2022-10-18T06:31:20.615Z,99773.59
2022-10-18T06:33:47.698Z,99774.25
2022-10-18T06:36:16.026Z,99773.00
2022-10-18T06:38:43.119Z,99771.03
2022-10-18T06:41:10.107Z,99770.66
2022-10-18T06:43:37.152Z,99765.13
2022-10-18T06:46:05.608Z,99767.34
2022-10-18T06:48:32.751Z,99763.63
2022-10-18T06:51:00.602Z,99774.25
2022-10-18T06:53:29.114Z,99772.28
2022-10-18T06:56:00.715Z,99774.75
2022-10-18T06:58:28.410Z,99784.56
2022-10-18T07:00:55.181Z,99783.53
2022-10-18T07:03:22.396Z,99772.44
2022-10-18T07:05:50.091Z,99774.06
2022-10-18T07:08:17.191Z,99777.50
2022-10-18T07:10:51.651Z,99776.16
2022-10-18T07:13:34.221Z,99774.94
2022-10-18T07:16:10.641Z,99782.06
2022-10-18T07:18:41.443Z,99778.00
2022-10-18T07:21:10.291Z,99780.09
2022-10-18T07:23:38.770Z,99778.13
2022-10-18T07:26:34.948Z,99774.03
2022-10-18T07:29:05.929Z,99770.34
2022-10-18T07:31:33.411Z,99770.94
2022-10-18T07:34:00.648Z,99775.25
2022-10-18T07:36:27.483Z,99763.88
2022-10-18T07:38:54.503Z,99759.91
2022-10-18T07:41:21.767Z,99769.69
2022-10-18T07:43:50.982Z,99763.88
2022-10-18T07:46:18.371Z,99761.50
2022-10-18T07:48:45.451Z,99756.69
2022-10-18T07:51:12.294Z,99758.13
2022-10-18T07:53:39.364Z,99749.34
2022-10-18T07:56:09.578Z,99748.22
2022-10-18T07:58:36.892Z,99752.53
2022-10-18T08:01:04.519Z,99740.41
2022-10-18T08:03:31.596Z,99743.50
2022-10-18T08:05:58.451Z,99741.25
2022-10-18T08:08:25.740Z,99743.59
2022-10-18T08:10:52.759Z,99738.75
2022-10-18T08:13:19.778Z,99744.66
2022-10-18T08:15:46.614Z,99737.09
2022-10-18T08:18:13.726Z,99735.72
2022-10-18T08:20:44.588Z,99725.16
2022-10-18T08:23:11.731Z,99730.34
2022-10-18T08:25:38.679Z,99732.50
2022-10-18T08:28:06.702Z,99738.28
2022-10-18T08:30:34.765Z,99730.88
2022-10-18T08:33:02.487Z,99726.59
2022-10-18T08:35:29.405Z,99723.50
2022-10-18T08:37:56.457Z,99722.19
2022-10-18T08:40:23.281Z,99722.53
2022-10-18T08:43:25.926Z,99723.56
2022-10-18T08:45:53.345Z,99713.25
2022-10-18T08:48:32.462Z,99718.06
2022-10-18T08:50:59.222Z,99707.91
2022-10-18T08:53:40.620Z,99709.22
2022-10-18T08:56:14.603Z,99709.81
2022-10-18T08:58:44.995Z,99704.53
2022-10-18T09:01:35.461Z,99713.00
2022-10-18T09:04:27.490Z,99703.13
2022-10-18T09:07:04.755Z,99717.19
2022-10-18T09:09:59.342Z,99706.03
2022-10-18T09:12:51.939Z,99708.03
2022-10-18T09:15:31.170Z,99702.88
2022-10-18T09:18:29.141Z,99715.09
2022-10-18T09:21:26.063Z,99701.78
2022-10-18T09:23:55.908Z,99696.75
2022-10-18T09:26:23.767Z,99692.44
2022-10-18T09:29:03.733Z,99694.88
2022-10-18T09:31:49.540Z,99693.44
2022-10-18T09:34:31.903Z,99690.75
2022-10-18T09:36:58.959Z,99695.06
2022-10-18T09:39:28.815Z,99688.16
2022-10-18T09:42:26.990Z,99690.59
2022-10-18T09:45:15.416Z,99688.16
2022-10-18T09:48:03.224Z,99686.56
2022-10-18T09:50:35.431Z,99675.34
2022-10-18T09:53:12.402Z,99671.16
2022-10-18T09:55:47.532Z,99674.16
2022-10-18T09:58:14.424Z,99670.28
2022-10-18T10:00:51.536Z,99670.72
2022-10-18T10:03:18.510Z,99668.41
2022-10-18T10:05:45.612Z,99675.28
2022-10-18T10:08:12.606Z,99667.53
2022-10-18T10:10:39.973Z,99669.94
2022-10-18T10:13:07.880Z,99665.63
2022-10-18T10:15:38.186Z,99646.34
2022-10-18T10:18:17.864Z,99651.97
2022-10-18T10:20:50.599Z,99649.63
2022-10-18T10:23:32.119Z,99641.69
2022-10-18T10:26:03.918Z,99635.44
2022-10-18T10:28:36.168Z,99635.31
2022-10-18T10:31:24.980Z,99629.38
2022-10-18T10:34:25.419Z,99630.47
2022-10-18T10:36:53.638Z,99621.53
2022-10-18T10:39:21.983Z,99616.59
2022-10-18T10:41:56.426Z,99614.44
2022-10-18T10:44:25.162Z,99604.59
2022-10-18T10:46:51.978Z,99597.09
2022-10-18T10:49:39.704Z,99593.19
2022-10-18T10:52:09.398Z,99585.69
2022-10-18T10:54:55.738Z,99588.34
2022-10-18T10:57:28.258Z,99577.72
2022-10-18T10:59:57.107Z,99574.13
2022-10-18T11:02:35.992Z,99563.03
2022-10-18T11:05:22.584Z,99562.41
2022-10-18T11:07:49.420Z,99564.22
2022-10-18T11:10:20.137Z,99560.22
2022-10-18T11:13:11.524Z,99561.91
2022-10-18T11:15:40.268Z,99551.38
2022-10-18T11:18:35.383Z,99547.19
2022-10-18T11:21:08.256Z,99544.97
2022-10-18T11:23:36.851Z,99541.47
2022-10-18T11:26:13.059Z,99538.72
2022-10-18T11:28:52.144Z,99526.59
2022-10-18T11:31:28.102Z,99519.78
2022-10-18T11:34:21.295Z,99525.44
2022-10-18T11:37:15.933Z,99518.28
2022-10-18T11:39:56.860Z,99502.56
2022-10-18T11:43:01.680Z,99505.50
2022-10-18T11:45:38.270Z,99499.38
2022-10-18T11:48:16.839Z,99500.75
2022-10-18T11:50:49.754Z,99491.53
2022-10-18T11:53:41.907Z,99487.59
2022-10-18T11:56:17.892Z,99490.69
2022-10-18T11:59:08.848Z,99487.31
2022-10-18T12:02:03.451Z,99482.38
2022-10-18T12:04:34.930Z,99482.38
2022-10-18T12:07:02.020Z,99475.72
2022-10-18T12:09:36.564Z,99469.91
2022-10-18T12:12:09.425Z,99461.22
2022-10-18T12:14:57.740Z,99457.47
2022-10-18T12:17:43.128Z,99455.25
2022-10-18T12:20:19.462Z,99457.13
2022-10-18T12:22:50.166Z,99465.88
2022-10-18T12:25:17.694Z,99447.06
2022-10-18T12:27:49.013Z,99444.50
2022-10-18T12:30:35.190Z,99435.09
2022-10-18T12:33:28.589Z,99441.59
2022-10-18T12:36:25.414Z,99430.31
2022-10-18T12:39:00.373Z,99438.53
2022-10-18T12:41:28.604Z,99431.16
2022-10-18T12:44:06.386Z,99422.78
2022-10-18T12:46:51.021Z,99411.50
2022-10-18T12:49:42.611Z,99406.84
2022-10-18T12:52:30.663Z,99406.53
2022-10-18T12:55:28.942Z,99401.03
2022-10-18T12:57:59.135Z,99405.50
2022-10-18T13:00:32.201Z,99397.28
2022-10-18T13:03:17.883Z,99404.47
2022-10-18T13:05:56.091Z,99384.09
2022-10-18T13:08:37.955Z,99384.78
2022-10-18T13:11:10.530Z,99384.94
2022-10-18T13:14:15.262Z,99383.78
2022-10-18T13:16:49.029Z,99376.06
2022-10-18T13:20:07.656Z,99379.81
2022-10-18T13:23:00.060Z,99383.06
2022-10-18T13:25:34.148Z,99376.06
2022-10-18T13:28:19.096Z,99375.91
2022-10-18T13:31:23.343Z,99371.59
2022-10-18T13:33:50.389Z,99377.59
2022-10-18T13:36:22.522Z,99372.09
2022-10-18T13:38:50.476Z,99379.31
2022-10-18T13:43:52.974Z,99381.72
2022-10-18T13:46:20.689Z,99386.34
2022-10-18T13:48:51.887Z,99380.16
2022-10-18T13:51:18.889Z,99386.31
2022-10-18T13:54:07.347Z,99372.63
2022-10-18T13:56:40.408Z,99359.25
2022-10-18T13:59:25.365Z,99375.69
2022-10-18T14:02:13.887Z,99379.81
2022-10-18T14:05:16.878Z,99372.44
2022-10-18T14:07:50.529Z,99372.75
2022-10-18T14:10:29.777Z,99374.13
2022-10-18T14:13:04.992Z,99377.03
2022-10-18T14:15:34.422Z,99372.25
2022-10-18T14:18:31.881Z,99358.56
2022-10-18T14:21:13.446Z,99359.06
2022-10-18T14:23:44.473Z,99351.69
2022-10-18T14:26:16.265Z,99352.69
2022-10-18T14:29:00.200Z,99348.41
2022-10-18T14:31:27.693Z,99353.19
2022-10-18T14:33:57.943Z,99342.25
2022-10-18T14:36:27.322Z,99348.56
2022-10-18T14:38:58.059Z,99343.63
2022-10-18T14:41:28.436Z,99344.47
2022-10-18T14:44:14.168Z,99341.03
2022-10-18T14:46:43.685Z,99342.91
2022-10-18T14:49:11.977Z,99340.53
2022-10-18T14:51:39.309Z,99339.66
2022-10-18T14:54:32.977Z,99330.75
2022-10-18T14:57:00.722Z,99330.06
2022-10-18T14:59:29.750Z,99322.19
2022-10-18T15:02:07.024Z,99317.88
2022-10-18T15:04:34.107Z,99314.31
2022-10-18T15:07:03.102Z,99316.38
2022-10-18T15:09:30.298Z,99310.22
2022-10-18T15:11:57.985Z,99308.66
2022-10-18T15:14:27.309Z,99319.75
2022-10-18T15:16:58.622Z,99315.50
2022-10-18T15:19:30.063Z,99298.34
2022-10-18T15:22:31.269Z,99295.78
2022-10-18T15:25:06.640Z,99303.63
2022-10-18T15:27:36.165Z,99305.69
2022-10-18T15:30:15.382Z,99299.69
2022-10-18T15:33:01.046Z,99310.13
2022-10-18T15:35:29.876Z,99300.34
2022-10-18T15:37:58.386Z,99304.47
2022-10-18T15:40:28.532Z,99295.72
2022-10-18T15:43:00.888Z,99300.53
2022-10-18T15:45:36.238Z,99310.06
2022-10-18T15:48:02.967Z,99313.13
2022-10-18T15:50:51.257Z,99301.66
2022-10-18T15:53:21.078Z,99298.41
2022-10-18T15:55:52.378Z,99293.22
2022-10-18T15:58:26.587Z,99298.16
2022-10-18T16:00:57.695Z,99299.53
2022-10-18T16:03:24.592Z,99298.13
2022-10-18T16:05:54.433Z,99304.78
2022-10-18T16:08:23.532Z,99307.84
2022-10-18T16:10:51.122Z,99307.31
2022-10-18T16:13:18.765Z,99308.66
2022-10-18T16:15:45.881Z,99317.16
2022-10-18T16:18:18.314Z,99320.22
2022-10-18T16:20:46.175Z,99329.63
2022-10-18T16:23:21.139Z,99331.81
2022-10-18T16:25:48.178Z,99330.56
2022-10-18T16:28:16.566Z,99337.91
2022-10-18T16:30:45.620Z,99339.97
2022-10-18T16:33:12.372Z,99342.53
2022-10-18T16:35:39.396Z,99341.28
2022-10-18T16:38:06.204Z,99345.81
2022-10-18T16:40:34.646Z,99344.75
2022-10-18T16:43:03.280Z,99338.91
2022-10-18T16:45:30.262Z,99343.13
2022-10-18T16:47:57.032Z,99350.47
2022-10-18T16:50:24.134Z,99349.34
2022-10-18T16:52:50.887Z,99351.06
2022-10-18T16:55:24.849Z,99355.13
2022-10-18T16:57:51.891Z,99361.75
2022-10-18T17:00:20.925Z,99362.94
2022-10-18T17:02:48.461Z,99371.75
2022-10-18T17:05:16.663Z,99372.78
2022-10-18T17:07:43.560Z,99389.31
2022-10-18T17:10:14.857Z,99382.56
2022-10-18T17:12:41.691Z,99378.16
2022-10-18T17:15:09.153Z,99384.47
2022-10-18T17:17:36.229Z,99391.25
2022-10-18T17:20:04.107Z,99401.28
2022-10-18T17:22:30.939Z,99406.91
2022-10-18T17:24:57.966Z,99416.28
2022-10-18T17:27:24.803Z,99430.78
2022-10-18T17:29:51.798Z,99422.88
2022-10-18T17:32:18.543Z,99427.50
2022-10-18T17:34:45.584Z,99426.09
2022-10-18T17:37:13.628Z,99430.38
2022-10-18T17:39:40.675Z,99427.94
2022-10-18T17:42:07.623Z,99432.72
2022-10-18T17:44:34.626Z,99432.88
2022-10-18T17:47:01.491Z,99429.59
2022-10-18T17:49:28.623Z,99431.47
2022-10-18T17:51:55.438Z,99433.16
2022-10-18T17:54:22.478Z,99434.91
2022-10-18T17:56:52.356Z,99433.00
2022-10-18T17:59:21.742Z,99427.56
2022-10-18T18:01:48.540Z,99432.00
2022-10-18T18:04:17.026Z,99438.63
2022-10-18T18:06:45.414Z,99443.22
2022-10-18T18:09:13.586Z,99451.41
2022-10-18T18:11:41.197Z,99450.56
2022-10-18T18:14:09.650Z,99445.25
2022-10-18T18:16:37.710Z,99446.09
2022-10-18T18:19:09.528Z,99451.88
2022-10-18T18:21:36.898Z,99454.59
2022-10-18T18:24:04.410Z,99454.88
2022-10-18T18:26:32.577Z,99458.66
2022-10-18T18:28:59.906Z,99467.69
2022-10-18T18:31:28.414Z,99464.25
2022-10-18T18:33:57.969Z,99461.38
2022-10-18T18:36:25.987Z,99460.66
2022-10-18T18:38:56.861Z,99462.53
2022-10-18T18:41:25.299Z,99461.53
2022-10-18T18:43:57.133Z,99455.38
2022-10-18T18:46:24.810Z,99470.16
2022-10-18T18:48:51.841Z,99467.97
2022-10-18T18:51:19.562Z,99464.69
2022-10-18T18:53:46.813Z,99460.09
2022-10-18T18:56:15.470Z,99455.50
2022-10-18T18:58:44.024Z,99447.19
2022-10-18T19:01:14.800Z,99460.38
2022-10-18T19:03:42.893Z,99467.72
2022-10-18T19:06:15.819Z,99461.28
2022-10-18T19:08:44.848Z,99462.56
2022-10-18T19:11:19.533Z,99462.00
2022-10-18T19:13:47.037Z,99472.22
2022-10-18T19:16:28.165Z,99475.38
2022-10-18T19:18:56.250Z,99481.00
2022-10-18T19:21:23.764Z,99484.75
2022-10-18T19:23:50.844Z,99492.03
2022-10-18T19:26:29.604Z,99510.16
2022-10-18T19:29:00.875Z,99509.44
2022-10-18T19:31:27.693Z,99517.63
2022-10-18T19:33:59.750Z,99519.66
2022-10-18T19:36:27.914Z,99519.47
2022-10-18T19:38:54.916Z,99517.78
2022-10-18T19:41:21.823Z,99539.00
2022-10-18T19:43:48.831Z,99537.13
2022-10-18T19:46:15.640Z,99547.47
2022-10-18T19:48:42.663Z,99541.59
2022-10-18T19:51:15.988Z,99537.72
2022-10-18T19:53:46.594Z,99537.56
2022-10-18T19:56:20.879Z,99539.28
2022-10-18T19:58:47.925Z,99544.91
2022-10-18T20:01:14.866Z,99537.88
2022-10-18T20:03:42.024Z,99532.25
2022-10-18T20:06:09.016Z,99535.59
2022-10-18T20:08:36.805Z,99531.13
2022-10-18T20:11:08.426Z,99543.91
2022-10-18T20:13:35.620Z,99546.91
2022-10-18T20:16:02.736Z,99563.41
2022-10-18T20:18:29.756Z,99570.59
2022-10-18T20:20:56.532Z,99568.88
2022-10-18T20:23:23.785Z,99574.59
2022-10-18T20:25:57.293Z,99576.47
2022-10-18T20:28:25.133Z,99570.47
2022-10-18T20:31:05.476Z,99569.44
2022-10-18T20:33:32.745Z,99563.13
2022-10-18T20:36:03.642Z,99560.41
2022-10-18T20:38:34.365Z,99566.16
2022-10-18T20:41:08.673Z,99566.00
2022-10-18T20:43:35.736Z,99562.84
2022-10-18T20:46:02.540Z,99562.84
2022-10-18T20:48:30.016Z,99561.28
2022-10-18T20:50:56.813Z,99561.44
2022-10-18T20:53:23.928Z,99558.84
2022-10-18T20:55:50.734Z,99568.16
2022-10-18T20:58:17.758Z,99569.19
2022-10-18T21:00:44.537Z,99565.72
2022-10-18T21:05:39.300Z,99558.69
2022-10-18T21:08:06.281Z,99561.56
2022-10-18T21:10:33.066Z,99560.84
2022-10-18T21:13:00.160Z,99557.09
2022-10-18T21:15:26.961Z,99550.53
2022-10-18T21:17:53.992Z,99551.50
2022-10-18T21:20:20.748Z,99554.41
2022-10-18T21:22:48.280Z,99561.56
2022-10-18T21:25:15.070Z,99552.94
2022-10-18T21:27:42.064Z,99560.41
2022-10-18T21:30:09.537Z,99558.53
2022-10-18T21:32:36.724Z,99556.09
2022-10-18T21:35:03.735Z,99556.81
2022-10-18T21:37:30.708Z,99553.81
2022-10-18T21:39:57.465Z,99551.38
2022-10-18T21:42:24.465Z,99552.22
2022-10-18T21:44:51.229Z,99558.81
2022-10-18T21:47:18.234Z,99553.19
2022-10-18T21:49:45.012Z,99552.78
2022-10-18T21:52:12.071Z,99558.22
2022-10-18T21:54:38.879Z,99549.72
2022-10-18T21:57:05.853Z,99548.59
2022-10-18T21:59:32.638Z,99551.19
2022-10-18T22:02:01.270Z,99549.72
2022-10-18T22:04:28.122Z,99540.84
2022-10-18T22:06:55.137Z,99545.31
2022-10-18T22:09:22.167Z,99547.84
2022-10-18T22:11:51.137Z,99544.72
2022-10-18T22:14:17.980Z,99541.41
2022-10-18T22:16:45.017Z,99542.41
2022-10-18T22:19:11.793Z,99541.41
2022-10-18T22:21:38.856Z,99543.53
2022-10-18T22:24:07.073Z,99547.16
2022-10-18T22:26:36.099Z,99551.72
2022-10-18T22:29:05.565Z,99556.72
2022-10-18T22:31:34.114Z,99549.56
2022-10-18T22:34:08.954Z,99553.72
2022-10-18T22:36:36.189Z,99546.53
2022-10-18T22:39:03.639Z,99544.53
2022-10-18T22:41:30.644Z,99543.81
2022-10-18T22:43:59.766Z,99561.00
2022-10-18T22:46:29.757Z,99562.00
2022-10-18T22:48:56.517Z,99557.44
2022-10-18T22:51:23.624Z,99557.56
2022-10-18T22:53:50.412Z,99547.53
2022-10-18T22:56:18.824Z,99552.13
2022-10-18T22:58:45.814Z,99545.66
2022-10-18T23:01:15.413Z,99550.66
2022-10-18T23:03:42.258Z,99549.22
2022-10-18T23:06:26.180Z,99547.50
2022-10-18T23:08:53.699Z,99543.59
2022-10-18T23:11:20.761Z,99550.19
2022-10-18T23:13:47.539Z,99549.50
2022-10-18T23:16:14.829Z,99554.50
2022-10-18T23:18:41.834Z,99550.78
2022-10-18T23:21:10.684Z,99552.50
2022-10-18T23:23:38.695Z,99551.06
2022-10-18T23:26:10.225Z,99554.19
2022-10-18T23:28:37.788Z,99559.34
2022-10-18T23:31:09.476Z,99558.78
2022-10-18T23:33:36.377Z,99551.72
2022-10-18T23:36:04.420Z,99555.75
2022-10-18T23:38:31.424Z,99548.69
2022-10-18T23:40:58.458Z,99551.56
2022-10-18T23:43:25.285Z,99547.13
2022-10-18T23:45:52.294Z,99551.41
2022-10-18T23:48:19.068Z,99549.53
2022-10-18T23:50:46.124Z,99553.41
2022-10-18T23:53:12.885Z,99554.41
2022-10-18T23:55:39.912Z,99553.25
2022-10-18T23:58:06.665Z,99547.78
